x

Cape Cod - 24 Nm East Of Provincetown, Ma (44018) Wave Buoy

7:50am - Wed 27th May 2015 All times are EDT. -4 hours from GMT.

  • Sig Wave height 3.6ft
  • Swell Direction
  • Peak Period 5s
  • Average Period 5s
  • Wind
    16mph, 25mph gusts
  • Sea Temp 51°f
  • Air Temp 57°f
  • Sea Pressure 1023.2mb
  • Cape Cod - 24 Nm East Of Provincetown, Ma
  • Cape Cod - 24 Nm East Of Provincetown, Ma

More Historic Weather Station data

Upgrade to MSW Pro to gain access to the past 30 days of data for over 8000 Wavebouys and Weather Stations around the globe.

Join Pro

Comparision Forecast

View Surf forecast
   
Wed 05/27 7:50am 3.5ft 5s 5s 16 25 mph 1023.2mb 51f 57f
6:50am 3.5ft 6s 5s 20 22 mph 1022.6mb 51f 56f
5:50am 3.5ft 5s 4s 16 18 mph 1022.4mb 50f 56f
4:50am 3.5ft 6s 4s 18 20 mph 1022.1mb 50f 57f
3:50am 3.5ft 5s 4s 20 22 mph 1021.5mb 51f 57f
2:50am 3.5ft 6s 4s 16 18 mph 1022.2mb 51f 57f
1:50am 4ft 4s 4s 20 22 mph 1021.9mb 51f 58f
12:50am 3.5ft 4s 4s 18 20 mph 1022.3mb 51f 58f
Tue 05/26 11:50pm 3.5ft 6s 4s 18 20 mph 1022mb 51f 58f
10:50pm 3.5ft 5s 4s 18 20 mph 1021.7mb 51f 58f
9:50pm 3.5ft 5s 4s 20 22 mph 1021.4mb 51f 59f
8:50pm 3.5ft 6s 4s 16 20 mph 1021.1mb 51f 58f
7:50pm 3.5ft 5s 4s 18 22 mph 1020.8mb 52f 59f
6:50pm 3.5ft 6s 5s 13 16 mph 1021mb 52f 58f
5:50pm 3.5ft 6s 4s 18 20 mph 1020.7mb 52f 60f
4:50pm 3.5ft 6s 4s 11 13 mph 1021.2mb 52f 58f
3:50pm 3.5ft 5s 4s 13 16 mph 1021.2mb 51f 59f
2:50pm 3.5ft 5s 4s 13 16 mph 1021.2mb 51f 56f
12:50pm 3.5ft 6s 4s 16 18 mph 1022.1mb 51f 59f
11:50am 3.5ft 5s 4s 13
mph
1022.3mb 51f 58f
10:50am 3ft 5s 4s 18 22 mph 1022.4mb 51f 60f
9:50am 3.5ft 5s 4s 16 18 mph 1022.2mb 51f 56f
8:50am 3.5ft 5s 4s 18 20 mph 1022.3mb 51f 57f
7:50am 3.5ft 5s 4s 18 22 mph 1022.4mb 51f 57f
6:50am 3.5ft 4s 4s 18 22 mph 1022.1mb 51f 57f
5:50am 3.5ft 5s 4s 20 22 mph 1022mb 51f 57f
4:50am 3ft 4s 4s 20 25 mph 1022mb 50f 58f
3:50am 3ft 4s 4s 20 22 mph 1021.8mb 50f 58f
2:50am 2.5ft 4s 4s 18 20 mph 1021.9mb 51f 57f
1:50am 2.5ft 4s 4s 16 18 mph 1022.4mb 51f 56f
12:50am 2.5ft 4s 4s 11 16 mph 1023mb 51f 54f
Mon 05/25 11:50pm 2.5ft 5s 4s 16 18 mph 1023mb 51f 55f
10:50pm 2.5ft 4s 4s 16 18 mph 1022.9mb 51f 54f
9:50pm 2.5ft 5s 4s 18 20 mph 1023.2mb 51f 55f
8:50pm 2.5ft 4s 4s 18 20 mph 1023.2mb 51f 55f
7:50pm 2.5ft 5s 4s 18 20 mph 1022.9mb 50f 55f
6:50pm 2.5ft 5s 4s 18 20 mph 1023.4mb 50f 55f
5:50pm 2.5ft 5s 4s 16 18 mph 1023.3mb 50f 55f
4:50pm 2.5ft 5s 4s 16 18 mph 1023.6mb 50f 55f
3:50pm 2.5ft 4s 4s 13 16 mph 1023.6mb 50f 55f
2:50pm 2.5ft 4s 4s 16
mph
1024mb 51f 55f
1:50pm 2.5ft 4s 4s 11 13 mph 1024.4mb 51f 55f
12:50pm 2.5ft 4s 4s 16 18 mph 1024.4mb 50f 55f
11:50am 2ft 3s 4s 13 16 mph 1024.6mb 50f 55f
10:50am 2ft 4s 4s 13
mph
1024.8mb 50f 54f
9:50am 2ft 4s 4s 9 11 mph 1024.8mb 50f 53f
8:50am 2.5ft 5s 4s 11
mph
1024.9mb 50f 53f
7:50am 2.5ft 5s 4s 9 11 mph 1024.8mb 49f 53f
6:50am 2.5ft 5s 4s 11 13 mph 1024.6mb 50f 53f
5:50am 2.5ft 5s 4s 13
mph
1024.2mb 49f 53f
4:50am 2.5ft 5s 4s 11
mph
1023.9mb 49f 54f
3:50am 2.5ft 5s 4s 13
mph
1023.8mb 49f 54f
2:50am 3ft 5s 4s 16 18 mph 1023.5mb 50f 55f
1:50am 3.5ft 5s 4s 18 20 mph 1023.5mb 50f 55f
12:50am 3ft 5s 4s 18 20 mph 1023.8mb 50f 56f
Sun 05/24 11:50pm 3.5ft 6s 4s 18 22 mph 1023.9mb 50f 56f
10:50pm 3.5ft 4s 4s 20 25 mph 1023.6mb 50f 56f
9:50pm 3.5ft 4s 4s 20 22 mph 1023.5mb 50f 56f
8:50pm 3.5ft 5s 4s 20 25 mph 1022.6mb 50f 57f
7:50pm 3.5ft 5s 4s 20 25 mph 1022.1mb 50f 57f
6:50pm 3.5ft 5s 4s 22 25 mph 1021.6mb 51f 59f
5:50pm 3ft 5s 4s 13 18 mph 1021.7mb 51f 58f
4:50pm 3ft 6s 4s 20 25 mph 1021.7mb 51f 60f
3:50pm 2.5ft 5s 4s 13
mph
1022.1mb 51f 56f
2:50pm 2.5ft 5s 4s 11 13 mph 1022.7mb 51f 58f
1:50pm 2.5ft 4s 4s 13 18 mph 1023mb 51f 57f
12:50pm 2.5ft 4s 4s 16 18 mph 1023.4mb 50f 57f
11:50am 3ft 4s 4s 13
mph
1024.2mb 50f 56f
10:50am 3ft 5s 4s 16 18 mph 1024.3mb 50f 55f
9:50am 3ft 4s 4s 18 20 mph 1024.6mb 50f 55f
8:50am 3.5ft 4s 4s 16 18 mph 1024.9mb 50f 54f
7:50am 3ft 4s 4s 13
mph
1025.2mb 50f 52f
6:50am 3ft 4s 4s 16 18 mph 1025.1mb 49f 52f
5:50am 3ft 5s 4s 18 20 mph 1025mb 49f 52f
4:50am 3ft 4s 4s 16 20 mph 1025mb 50f 52f
3:50am 2.5ft 4s 4s 16 18 mph 1025.3mb 49f 52f
2:50am 2.5ft 3s 4s 16 20 mph 1025.7mb 50f 52f
1:50am 2.5ft 3s 4s 16 18 mph 1025.6mb 50f 52f
12:50am 2.5ft 3s 4s 11 13 mph 1026.3mb 50f 52f
Sat 05/23 11:50pm 2.5ft 3s 4s 16 18 mph 1026.3mb 50f 52f
10:50pm 2.5ft 5s 4s 16 18 mph 1026.2mb 50f 52f
9:50pm 2.5ft 4s 4s 16 18 mph 1026.2mb 50f 52f
8:50pm 2ft 8s 4s 13 16 mph 1026.1mb 50f 53f
7:50pm 2ft 8s 4s 11
mph
1025.9mb 50f 52f
6:50pm 2.5ft 8s 5s 13
mph
1025.7mb 50f 51f
5:50pm 2.5ft 8s 4s 11 16 mph 1025.6mb 50f 51f
4:50pm 3ft 8s 5s 7 9 mph 1025.9mb 50f 52f
3:50pm 3ft 5s 4s 9 11 mph 1026.5mb 50f 52f
2:50pm 3.5ft 6s 4s 9 13 mph 1026.9mb 50f 50f
1:50pm 4ft 6s 5s 13 18 mph 1027.1mb 50f 49f
12:50pm 5ft 6s 5s 18 22 mph 1027mb 50f 48f